Portada
METAR-TAF:

METAR-TAF

Aeroports :

Aeroport de Gran Canària

Gran Canària, Espanya

latitud: 27-56N, longitud: 015-23W, altitud: 23 m

Observació

L'informe es va fer fa 23 minuts, a les 23:30 UTC
Vent calma
Temperatura 20°C
Humitat 83%
Pressió 1017 hPa
Visibilitat 10 km o més
Núvols disperses a una alçada de 1800 ft
Cel ennuvolat a una alçada de 2500 ft

METAR: GCLP 052330Z 00000KT 9999 SCT018 BKN025 20/17 Q1017 NOSIG

Hora: 23:53 (23:53 UTC)

Pronòstic

L'informe es va fer fa 3 hores i 53 minuts, a les 20:00 UTC
Pronòstic vàlid del 05 a les 21 UTC al 06 a les 21 UTC
Vent 4 kt del Oest/Sud-Oest
Visibilitat 10 km o més
Escasses núvols a una alçada de 3000 ft
Evolucionant progressivament
l' 06 a les 10 UTC al 06 a les 12 UTC
Vent 14 kt del Sud
Temporalment
l' 06 a les 10 UTC al 06 a les 18 UTC
Vent 15 kt del Sud/Sud-Oest amb ràfegues de 25 kt

TAF: GCLP 052000Z 0521/0621 25004KT 9999 FEW030 TX24/0614Z TN18/0606Z BECMG 0610/0612 19014KT TEMPO 0610/0618 20015G25KT

Observacions i pronòstics meteorològics de més de 4000 aeroports (METAR i TAF).

Les estacions disponibles són els punts grocs i vermells al mapa.

Posi el ratolí al punt desitjat per veure el nom de l'estació.

Feu clic per veure les observacions i els pronòstics meteorològics.

Per canviar el mapa: feu clic els botons verds amb una creu de color negre per apropar; al botó verd amb un guió per allunyar la imatge; o en les fletxes verdes per a mapes adjacents.


METAR-TAF: